Time;durP1;ratioP1;P1;durP2;ratioP2;P2;SDS_P1;SDS_P2;PMS_P1;PMS_P2;Temp;Humidity;BMP_temperature;BMP_pressure;BME280_temperature;BME280_humidity;BME280_pressure;Samples;Min_cycle;Max_cycle;Signal;HPM_P1;HPM_P2
2021/12/06 00:00:33;;;;;;;14.35;9.82;;;2.20;99.90;;;;;;4924085;29;20058;-78
2021/12/06 00:03:03;;;;;;;15.23;10.48;;;2.20;99.90;;;;;;4930221;29;20055;-79
2021/12/06 00:05:30;;;;;;;15.32;10.48;;;2.80;99.90;;;;;;4924700;29;20051;-78
2021/12/06 00:07:56;;;;;;;18.08;11.00;;;2.00;99.90;;;;;;4908369;29;20063;-78
2021/12/06 00:10:22;;;;;;;16.08;11.15;;;3.10;99.90;;;;;;4912276;28;20655;-77
2021/12/06 00:12:47;;;;;;;16.73;11.48;;;2.00;99.90;;;;;;4925584;29;20493;-78
2021/12/06 00:15:14;;;;;;;15.65;10.65;;;3.00;99.90;;;;;;4926961;29;20134;-77
2021/12/06 00:17:40;;;;;;;14.57;10.23;;;1.90;99.90;;;;;;4925034;29;20047;-77
2021/12/06 00:20:10;;;;;;;15.57;11.25;;;1.80;99.90;;;;;;4924731;29;20044;-77
2021/12/06 00:22:36;;;;;;;15.88;11.02;;;1.80;99.90;;;;;;4925394;29;20032;-77
2021/12/06 00:25:03;;;;;;;15.57;10.68;;;1.70;99.90;;;;;;4907627;29;20118;-79
2021/12/06 00:27:29;;;;;;;19.80;11.18;;;1.60;99.90;;;;;;4927274;29;20055;-77
2021/12/06 00:29:55;;;;;;;18.05;11.85;;;2.60;99.90;;;;;;4909983;29;20138;-77
2021/12/06 00:32:22;;;;;;;16.67;11.15;;;2.60;99.90;;;;;;4929780;29;20401;-77
2021/12/06 00:34:48;;;;;;;15.55;11.00;;;1.50;99.90;;;;;;4926309;28;20055;-78
2021/12/06 00:39:45;;;;;;;16.70;11.55;;;2.40;99.90;;;;;;4925180;29;20624;-77
2021/12/06 00:42:11;;;;;;;15.85;11.77;;;1.40;99.90;;;;;;4924561;29;20039;-77
2021/12/06 00:44:37;;;;;;;18.45;11.20;;;2.10;99.90;;;;;;4907886;29;20067;-77
2021/12/06 00:47:03;;;;;;;18.17;11.45;;;2.20;99.90;;;;;;4926709;29;20137;-78
2021/12/06 00:49:29;;;;;;;17.80;11.63;;;1.20;99.90;;;;;;4925651;29;20087;-78
2021/12/06 00:51:55;;;;;;;16.50;10.50;;;2.10;99.90;;;;;;4931060;29;20485;-78
2021/12/06 00:54:20;;;;;;;18.75;11.43;;;2.20;99.90;;;;;;4923466;29;20048;-77
2021/12/06 00:56:46;;;;;;;17.92;11.77;;;2.10;99.90;;;;;;4898583;29;20051;-77
2021/12/06 00:59:12;;;;;;;18.10;11.70;;;2.20;99.90;;;;;;4897097;29;20071;-77
2021/12/06 01:01:38;;;;;;;16.58;11.45;;;2.20;99.90;;;;;;4901188;29;20081;-79
2021/12/06 01:04:05;;;;;;;16.98;11.25;;;1.00;99.90;;;;;;4903008;29;20087;-78
2021/12/06 01:06:31;;;;;;;18.23;12.10;;;0.90;99.90;;;;;;4902685;29;20048;-77
2021/12/06 01:08:57;;;;;;;18.95;12.32;;;0.80;99.90;;;;;;4901954;29;20052;-79
2021/12/06 01:11:23;;;;;;;18.45;11.77;;;0.80;99.90;;;;;;4885703;29;20052;-77
2021/12/06 01:13:49;;;;;;;19.30;12.35;;;0.70;99.90;;;;;;4886332;29;20061;-77
2021/12/06 01:16:16;;;;;;;23.38;13.82;;;0.70;99.90;;;;;;4883529;29;20049;-77
2021/12/06 01:18:42;;;;;;;19.02;11.98;;;1.80;99.90;;;;;;4893335;29;20060;-78
2021/12/06 01:22:05;;;;;;;20.10;12.88;;;0.80;99.90;;;;;;4891500;29;20048;-80
2021/12/06 01:24:00;;;;;;;21.05;12.85;;;0.70;99.90;;;;;;4895336;29;20063;-78
2021/12/06 01:26:42;;;;;;;17.58;12.30;;;0.70;99.90;;;;;;4906129;29;20053;-78
2021/12/06 01:29:41;;;;;;;23.45;13.48;;;0.70;99.90;;;;;;4902871;29;20088;-79
2021/12/06 01:33:02;;;;;;;22.25;12.30;;;1.70;99.90;;;;;;4907567;29;20518;-78
2021/12/06 01:40:22;;;;;;;20.80;13.52;;;1.20;99.90;;;;;;4906322;29;20127;-79
2021/12/06 01:42:49;;;;;;;20.02;13.25;;;1.00;99.90;;;;;;4900255;29;20045;-77
2021/12/06 01:45:15;;;;;;;19.45;13.35;;;0.60;99.90;;;;;;4903525;29;20080;-77
2021/12/06 01:47:42;;;;;;;21.08;12.73;;;0.40;99.90;;;;;;4888343;29;20049;-77
2021/12/06 01:50:14;;;;;;;22.50;13.45;;;0.40;99.90;;;;;;4904172;29;20474;-81
2021/12/06 01:52:51;;;;;;;22.38;13.13;;;1.50;99.90;;;;;;4906384;29;20154;-77
2021/12/06 01:55:22;;;;;;;19.88;13.32;;;0.30;99.90;;;;;;4904673;29;20049;-76
2021/12/06 01:57:48;;;;;;;20.83;13.20;;;1.60;99.90;;;;;;4892262;29;20063;-78
2021/12/06 02:00:26;;;;;;;19.42;13.13;;;0.90;99.90;;;;;;4927760;29;20055;-77
2021/12/06 02:02:52;;;;;;;20.73;12.98;;;0.40;99.90;;;;;;4927952;29;20044;-77
2021/12/06 02:05:18;;;;;;;20.45;13.05;;;0.40;99.90;;;;;;4926867;29;20051;-77
2021/12/06 02:07:44;;;;;;;20.95;12.48;;;0.30;99.90;;;;;;4926613;29;20058;-76
2021/12/06 02:10:11;;;;;;;23.00;14.43;;;0.60;99.90;;;;;;4930814;29;20378;-80
2021/12/06 02:12:37;;;;;;;21.55;13.60;;;0.30;99.90;;;;;;4927985;29;20047;-77
2021/12/06 02:15:35;;;;;;;23.92;15.40;;;0.30;99.90;;;;;;4909133;29;20083;-77
2021/12/06 02:18:03;;;;;;;20.48;13.10;;;0.30;99.90;;;;;;4929473;29;20457;-77
2021/12/06 02:20:30;;;;;;;21.90;13.55;;;0.30;99.90;;;;;;4913272;29;20062;-78
2021/12/06 02:22:57;;;;;;;23.40;13.30;;;1.70;99.90;;;;;;4928194;29;20048;-77
2021/12/06 02:25:23;;;;;;;20.27;13.77;;;1.60;99.90;;;;;;4926707;29;20106;-77
2021/12/06 02:27:51;;;;;;;20.95;13.27;;;1.80;99.90;;;;;;4926768;29;20134;-77
2021/12/06 02:30:19;;;;;;;23.80;14.88;;;0.30;99.90;;;;;;4927278;29;20556;-77
2021/12/06 02:32:46;;;;;;;26.08;14.48;;;1.40;99.90;;;;;;4932252;29;20051;-77
2021/12/06 02:35:16;;;;;;;22.30;14.73;;;0.40;99.90;;;;;;4928162;29;20142;-79
2021/12/06 02:37:42;;;;;;;24.17;14.73;;;-0.70;99.90;;;;;;4911434;29;20047;-76
2021/12/06 02:40:19;;;;;;;25.13;14.93;;;0.40;99.90;;;;;;4933549;29;20097;-78
2021/12/06 02:42:46;;;;;;;23.60;14.52;;;0.50;99.90;;;;;;4925801;29;20048;-78
2021/12/06 02:45:15;;;;;;;27.48;16.20;;;1.00;99.90;;;;;;4926359;29;20047;-81
2021/12/06 02:47:42;;;;;;;28.77;15.57;;;1.20;99.90;;;;;;4943424;29;20506;-77
2021/12/06 02:50:10;;;;;;;26.88;16.52;;;1.50;99.90;;;;;;4927466;29;20047;-77
2021/12/06 02:52:38;;;;;;;27.15;15.35;;;0.70;99.90;;;;;;4930018;29;20051;-78
2021/12/06 02:55:23;;;;;;;27.55;16.48;;;1.90;99.90;;;;;;4926990;29;20053;-78
2021/12/06 02:57:54;;;;;;;25.52;15.40;;;0.70;99.90;;;;;;4914313;29;20088;-77
2021/12/06 03:00:21;;;;;;;28.73;16.85;;;0.80;99.90;;;;;;4924471;29;20063;-79
2021/12/06 03:02:47;;;;;;;25.58;16.45;;;0.80;99.90;;;;;;4925724;29;20134;-77
2021/12/06 03:05:13;;;;;;;27.92;17.08;;;1.90;99.90;;;;;;4927349;29;20698;-78
2021/12/06 03:07:39;;;;;;;29.25;17.23;;;1.30;99.90;;;;;;4944049;28;20122;-78
2021/12/06 03:10:09;;;;;;;29.67;16.48;;;2.40;99.90;;;;;;4926396;29;20065;-77
2021/12/06 03:12:35;;;;;;;27.23;16.48;;;1.00;99.90;;;;;;4926264;29;20038;-78
2021/12/06 03:15:04;;;;;;;25.80;16.15;;;1.00;99.90;;;;;;4927429;29;20118;-78
2021/12/06 03:17:31;;;;;;;27.73;16.98;;;1.00;99.90;;;;;;4926443;29;20510;-77
2021/12/06 03:19:58;;;;;;;26.52;17.02;;;1.00;99.90;;;;;;4911254;29;20043;-79
2021/12/06 03:22:24;;;;;;;23.95;16.33;;;1.70;99.90;;;;;;4907819;29;20075;-77
2021/12/06 03:24:50;;;;;;;25.98;16.17;;;1.90;99.90;;;;;;4942605;29;20079;-78
2021/12/06 03:27:17;;;;;;;25.75;15.90;;;1.90;99.90;;;;;;4909026;29;20059;-79
2021/12/06 03:29:44;;;;;;;28.60;16.42;;;1.10;99.90;;;;;;4909379;29;20051;-77
2021/12/06 03:32:10;;;;;;;27.80;16.42;;;1.10;99.90;;;;;;4927545;29;20043;-78
2021/12/06 03:34:37;;;;;;;25.80;16.15;;;1.20;99.90;;;;;;4926223;29;20051;-77
2021/12/06 03:37:05;;;;;;;24.73;15.48;;;1.20;99.90;;;;;;4927370;29;20134;-79
2021/12/06 03:39:36;;;;;;;25.70;15.73;;;1.20;99.90;;;;;;4927158;29;20051;-78
2021/12/06 03:42:06;;;;;;;28.90;17.13;;;1.20;99.90;;;;;;4931466;29;20043;-77
2021/12/06 03:44:32;;;;;;;23.85;15.68;;;1.20;99.90;;;;;;4915256;29;20073;-78
2021/12/06 03:47:02;;;;;;;27.10;16.25;;;1.60;99.90;;;;;;4908739;29;20476;-77
2021/12/06 03:49:29;;;;;;;28.05;16.73;;;1.30;99.90;;;;;;4926138;29;20052;-77
2021/12/06 03:51:55;;;;;;;27.95;16.40;;;1.30;99.90;;;;;;4911518;29;20058;-79
2021/12/06 03:54:24;;;;;;;27.00;16.27;;;2.50;99.90;;;;;;4911611;29;20665;-78
2021/12/06 03:56:51;;;;;;;27.52;16.17;;;2.70;99.90;;;;;;4931173;29;20047;-77
2021/12/06 03:59:17;;;;;;;23.98;15.23;;;1.30;99.90;;;;;;4928536;29;20093;-77
2021/12/06 04:01:45;;;;;;;25.00;16.30;;;1.70;99.90;;;;;;4910407;29;20051;-78
2021/12/06 04:04:11;;;;;;;26.65;16.58;;;1.50;99.90;;;;;;4924682;29;20131;-78
2021/12/06 04:06:39;;;;;;;26.95;16.25;;;1.30;99.90;;;;;;4923964;29;20233;-78
2021/12/06 04:09:06;;;;;;;27.50;16.80;;;1.70;99.90;;;;;;4926124;29;20125;-77
2021/12/06 04:11:33;;;;;;;27.75;16.38;;;1.40;99.90;;;;;;4924338;28;20570;-77
2021/12/06 04:13:59;;;;;;;25.35;15.60;;;1.50;99.90;;;;;;4924130;29;20102;-78
2021/12/06 04:16:25;;;;;;;29.50;17.30;;;1.40;99.90;;;;;;4929032;29;20055;-78
2021/12/06 04:18:50;;;;;;;33.35;17.58;;;1.40;99.90;;;;;;4941851;29;20094;-78
2021/12/06 04:21:18;;;;;;;30.83;17.95;;;1.50;99.90;;;;;;4942342;28;20166;-78
2021/12/06 04:23:43;;;;;;;26.80;16.60;;;1.70;99.90;;;;;;4930334;29;20145;-77
2021/12/06 04:26:10;;;;;;;30.00;17.13;;;1.50;99.90;;;;;;4923427;29;20050;-78
2021/12/06 04:28:37;;;;;;;30.67;17.05;;;2.60;99.90;;;;;;4915298;29;20055;-77
2021/12/06 04:31:06;;;;;;;26.10;16.08;;;2.10;99.90;;;;;;4910637;29;20047;-78
2021/12/06 04:33:32;;;;;;;30.27;17.88;;;1.50;99.90;;;;;;4909293;29;20044;-78
2021/12/06 04:35:58;;;;;;;27.70;16.70;;;3.10;99.90;;;;;;4927727;29;20059;-78
2021/12/06 04:38:23;;;;;;;28.85;17.42;;;1.60;99.90;;;;;;4912324;29;20465;-78
2021/12/06 04:40:49;;;;;;;28.90;16.25;;;1.60;99.90;;;;;;4921310;29;20043;-77
2021/12/06 04:43:15;;;;;;;27.58;16.75;;;1.60;99.90;;;;;;4926170;29;20051;-78
2021/12/06 04:45:41;;;;;;;30.25;17.60;;;1.60;99.90;;;;;;4926906;29;20122;-78
2021/12/06 04:48:08;;;;;;;29.95;17.17;;;1.60;99.90;;;;;;4932512;29;20126;-78
2021/12/06 04:50:36;;;;;;;30.65;17.20;;;2.20;99.90;;;;;;4925595;29;20043;-77
2021/12/06 04:53:18;;;;;;;29.55;17.20;;;1.70;99.90;;;;;;4931776;29;20054;-77
2021/12/06 04:56:03;;;;;;;28.35;16.48;;;1.70;99.90;;;;;;4924199;29;20619;-78
2021/12/06 04:58:39;;;;;;;29.88;16.73;;;1.70;99.90;;;;;;4924559;29;20095;-78
2021/12/06 05:01:12;;;;;;;31.30;17.00;;;2.00;99.90;;;;;;4924930;29;20047;-78
2021/12/06 05:03:40;;;;;;;33.53;18.40;;;1.70;99.90;;;;;;4940467;28;20599;-77
2021/12/06 05:06:22;;;;;;;34.80;18.38;;;1.70;99.90;;;;;;4925736;29;20058;-78
2021/12/06 05:08:54;;;;;;;34.67;18.60;;;1.70;99.90;;;;;;4924840;29;20056;-77
2021/12/06 05:11:23;;;;;;;37.15;20.17;;;1.80;99.90;;;;;;4910241;29;20050;-78
2021/12/06 05:13:52;;;;;;;45.22;20.08;;;1.80;99.90;;;;;;4926427;29;20047;-78
2021/12/06 05:16:18;;;;;;;38.92;19.27;;;2.40;99.90;;;;;;4940903;28;20046;-77
2021/12/06 05:18:45;;;;;;;39.30;19.67;;;2.50;99.90;;;;;;4925247;29;20105;-77
2021/12/06 05:21:11;;;;;;;38.72;20.35;;;1.80;99.90;;;;;;4908946;29;20054;-78
2021/12/06 05:23:37;;;;;;;43.75;20.20;;;1.90;99.90;;;;;;4924162;29;20089;-78
2021/12/06 05:26:04;;;;;;;35.70;18.63;;;2.00;99.90;;;;;;4913102;29;20076;-78
2021/12/06 05:28:33;;;;;;;39.42;20.60;;;1.90;99.90;;;;;;4927596;29;20121;-78
2021/12/06 05:30:59;;;;;;;37.22;19.77;;;2.10;99.90;;;;;;4887260;29;20118;-79
2021/12/06 05:33:31;;;;;;;37.25;19.40;;;1.90;99.90;;;;;;4917698;29;20047;-78
2021/12/06 05:36:00;;;;;;;38.13;19.40;;;1.90;99.90;;;;;;4925457;29;20400;-79
2021/12/06 05:38:28;;;;;;;40.03;21.05;;;2.00;99.90;;;;;;4930437;29;20054;-80
2021/12/06 05:40:54;;;;;;;44.50;20.27;;;2.00;99.90;;;;;;4926403;29;20051;-77
2021/12/06 05:43:20;;;;;;;39.17;19.45;;;3.00;99.90;;;;;;4929254;29;20131;-77
2021/12/06 05:45:46;;;;;;;37.88;19.60;;;2.00;99.90;;;;;;4928220;29;20058;-78
2021/12/06 05:48:12;;;;;;;39.03;19.52;;;2.90;99.90;;;;;;4928366;29;20051;-79
2021/12/06 05:50:38;;;;;;;41.28;19.75;;;2.00;99.90;;;;;;4914158;29;20043;-78
2021/12/06 05:53:04;;;;;;;40.72;19.48;;;2.00;99.90;;;;;;4928218;29;20074;-78
2021/12/06 05:55:30;;;;;;;39.38;19.30;;;2.00;99.90;;;;;;4928391;29;20035;-78
2021/12/06 05:58:00;;;;;;;39.83;20.60;;;2.20;99.90;;;;;;4896635;29;20044;-78
2021/12/06 06:00:29;;;;;;;37.25;18.25;;;2.00;99.90;;;;;;4926779;29;20047;-79
2021/12/06 06:02:56;;;;;;;42.92;20.85;;;2.10;99.90;;;;;;4913056;29;20043;-78
2021/12/06 06:05:22;;;;;;;41.55;20.35;;;2.10;99.90;;;;;;4912040;29;20130;-78
2021/12/06 06:07:48;;;;;;;38.92;18.55;;;2.10;99.90;;;;;;4926659;29;20326;-77
2021/12/06 06:10:15;;;;;;;37.58;18.85;;;2.10;99.90;;;;;;4911817;29;20039;-78
2021/12/06 06:12:41;;;;;;;33.88;17.08;;;2.50;99.90;;;;;;4928294;29;20039;-77
2021/12/06 06:15:07;;;;;;;34.53;16.45;;;3.20;99.90;;;;;;4942880;29;20114;-78
2021/12/06 06:17:40;;;;;;;35.83;15.98;;;2.10;99.90;;;;;;4941937;28;20478;-78
2021/12/06 06:20:09;;;;;;;35.80;17.27;;;2.30;99.90;;;;;;4927374;29;20094;-78
2021/12/06 06:22:35;;;;;;;37.05;18.80;;;2.10;99.90;;;;;;4927784;29;20043;-78
2021/12/06 06:25:01;;;;;;;36.35;16.77;;;2.10;99.90;;;;;;4943778;28;20047;-78
2021/12/06 06:27:26;;;;;;;39.53;18.35;;;2.10;99.90;;;;;;4917492;29;20055;-79
2021/12/06 06:29:52;;;;;;;37.40;17.67;;;2.10;99.90;;;;;;4928473;29;20113;-78
2021/12/06 06:32:18;;;;;;;39.40;18.63;;;2.10;99.90;;;;;;4932804;29;20051;-77
2021/12/06 06:34:44;;;;;;;38.45;16.38;;;2.20;99.90;;;;;;4930241;28;20082;-78
2021/12/06 06:37:10;;;;;;;36.08;18.42;;;2.10;99.90;;;;;;4912257;29;20130;-77
2021/12/06 06:39:36;;;;;;;36.75;18.02;;;2.10;99.90;;;;;;4942374;28;20078;-77
2021/12/06 06:42:02;;;;;;;43.03;18.55;;;2.20;99.90;;;;;;4897093;29;20082;-77
2021/12/06 06:44:27;;;;;;;41.13;18.50;;;2.10;99.90;;;;;;4914999;29;20070;-77
2021/12/06 06:46:53;;;;;;;39.67;18.73;;;2.10;99.90;;;;;;4915549;29;20059;-77
2021/12/06 06:49:20;;;;;;;40.25;18.58;;;3.00;99.90;;;;;;4910301;29;20056;-76
2021/12/06 06:51:46;;;;;;;42.55;19.50;;;2.50;99.90;;;;;;4920630;29;20616;-76
2021/12/06 06:54:13;;;;;;;47.25;20.90;;;2.70;99.90;;;;;;4927905;29;20463;-76
2021/12/06 06:56:39;;;;;;;48.38;20.10;;;3.10;99.90;;;;;;4927945;29;20535;-77
2021/12/06 06:59:05;;;;;;;43.50;20.45;;;2.20;99.90;;;;;;4910625;29;20122;-76
2021/12/06 07:01:31;;;;;;;40.75;18.45;;;2.20;99.90;;;;;;4911218;29;20051;-78
2021/12/06 07:03:57;;;;;;;40.97;18.90;;;3.30;99.90;;;;;;4939416;28;20776;-77
2021/12/06 07:06:26;;;;;;;43.53;20.20;;;2.20;99.90;;;;;;4923814;29;20083;-76
2021/12/06 07:08:54;;;;;;;40.38;18.55;;;2.20;99.90;;;;;;4922257;29;20135;-76
2021/12/06 07:11:21;;;;;;;44.10;20.92;;;2.20;99.90;;;;;;4923530;29;20077;-76
2021/12/06 07:13:47;;;;;;;44.13;18.80;;;2.20;99.90;;;;;;4907513;29;20649;-76
2021/12/06 07:16:15;;;;;;;44.75;19.73;;;2.30;99.90;;;;;;4923901;29;21658;-76
2021/12/06 07:18:40;;;;;;;37.70;18.08;;;2.20;99.90;;;;;;4924088;29;20079;-76
2021/12/06 07:21:06;;;;;;;44.22;19.60;;;3.10;99.90;;;;;;4925220;29;20079;-77
2021/12/06 07:23:38;;;;;;;38.60;16.70;;;2.70;99.90;;;;;;4923885;29;20093;-78
2021/12/06 07:26:15;;;;;;;41.70;18.88;;;2.20;99.90;;;;;;4906425;29;20047;-77
2021/12/06 07:28:43;;;;;;;37.95;18.08;;;2.80;99.90;;;;;;4923982;29;20051;-76
2021/12/06 07:31:12;;;;;;;39.92;18.83;;;3.20;99.90;;;;;;4906888;29;20126;-76
2021/12/06 07:33:39;;;;;;;46.15;20.08;;;2.30;99.90;;;;;;4924575;29;20535;-77
2021/12/06 07:36:05;;;;;;;47.75;19.77;;;2.30;99.90;;;;;;4925834;29;20560;-76
2021/12/06 07:38:33;;;;;;;43.65;19.80;;;3.00;99.90;;;;;;4925822;29;20058;-78
2021/12/06 07:40:59;;;;;;;39.78;18.10;;;2.30;99.90;;;;;;4925238;29;20051;-77
2021/12/06 07:43:25;;;;;;;42.47;19.25;;;2.30;99.90;;;;;;4906306;29;20504;-77
2021/12/06 07:45:51;;;;;;;45.47;20.00;;;2.30;99.90;;;;;;4925389;29;20083;-77
2021/12/06 07:48:17;;;;;;;40.08;18.95;;;2.30;99.90;;;;;;4930415;29;20043;-78
2021/12/06 07:50:43;;;;;;;50.97;21.75;;;2.30;99.90;;;;;;4915990;29;20061;-77
2021/12/06 07:53:09;;;;;;;43.08;19.73;;;2.30;99.90;;;;;;4925888;29;20051;-77
2021/12/06 07:55:35;;;;;;;47.67;21.15;;;3.00;99.90;;;;;;4926688;29;20071;-79
2021/12/06 07:58:05;;;;;;;48.45;20.25;;;2.40;99.90;;;;;;4929867;29;20058;-77
2021/12/06 08:00:34;;;;;;;43.40;20.60;;;2.40;99.90;;;;;;4926446;29;20187;-76
2021/12/06 08:03:00;;;;;;;48.72;21.20;;;3.30;99.90;;;;;;4924294;29;20485;-76
2021/12/06 08:05:30;;;;;;;43.92;19.63;;;2.40;99.90;;;;;;4923645;29;20043;-77
2021/12/06 08:07:58;;;;;;;54.40;21.23;;;2.40;99.90;;;;;;4907950;29;20047;-77
2021/12/06 08:10:24;;;;;;;52.40;22.70;;;2.50;99.90;;;;;;4925245;29;20044;-76
2021/12/06 08:12:50;;;;;;;60.45;24.05;;;2.40;99.90;;;;;;4923684;29;20063;-76
2021/12/06 08:15:16;;;;;;;51.67;21.58;;;3.10;99.90;;;;;;4923370;29;20465;-76
2021/12/06 08:17:42;;;;;;;53.72;22.23;;;2.60;99.90;;;;;;4922422;29;20058;-76
2021/12/06 08:20:09;;;;;;;58.75;21.75;;;3.20;99.90;;;;;;4906911;29;20123;-76
2021/12/06 08:22:36;;;;;;;53.28;22.13;;;2.50;99.90;;;;;;4907083;29;20055;-78
2021/12/06 08:25:03;;;;;;;50.60;20.80;;;2.60;99.90;;;;;;4930788;29;20051;-76
2021/12/06 08:27:29;;;;;;;45.97;19.95;;;2.50;99.90;;;;;;4924897;29;20055;-76
2021/12/06 08:29:55;;;;;;;52.75;22.10;;;2.60;99.90;;;;;;4923353;29;20663;-75
2021/12/06 08:32:21;;;;;;;62.00;21.15;;;2.60;99.90;;;;;;4925094;29;20104;-75
2021/12/06 08:34:47;;;;;;;50.65;21.25;;;3.40;99.90;;;;;;4915244;29;20064;-75
2021/12/06 08:37:14;;;;;;;49.88;20.60;;;2.60;99.90;;;;;;4939717;29;20090;-77
2021/12/06 08:39:40;;;;;;;51.35;21.15;;;3.90;99.90;;;;;;4929620;29;20066;-77
2021/12/06 08:42:07;;;;;;;50.13;20.25;;;2.90;99.90;;;;;;4909039;29;20047;-75
2021/12/06 08:44:33;;;;;;;48.25;20.58;;;2.90;99.90;;;;;;4916226;29;20051;-75
2021/12/06 08:46:59;;;;;;;49.55;21.15;;;3.70;99.90;;;;;;4909362;29;20523;-77
2021/12/06 08:49:26;;;;;;;46.53;19.45;;;2.80;99.90;;;;;;4925169;29;20047;-78
2021/12/06 08:51:55;;;;;;;53.17;20.77;;;3.30;99.90;;;;;;4909808;29;20499;-78
2021/12/06 08:54:26;;;;;;;47.53;20.50;;;3.50;99.90;;;;;;4930956;29;20129;-78
2021/12/06 08:56:54;;;;;;;52.30;20.50;;;4.20;99.90;;;;;;4925475;29;20055;-78
2021/12/06 08:59:20;;;;;;;52.90;21.65;;;2.90;99.90;;;;;;4923510;29;20082;-79
2021/12/06 09:01:47;;;;;;;55.25;19.45;;;4.20;99.90;;;;;;4940869;28;20086;-78
2021/12/06 09:04:14;;;;;;;49.67;20.40;;;4.00;99.90;;;;;;4911944;29;20056;-76
2021/12/06 09:06:43;;;;;;;53.00;21.60;;;3.00;99.90;;;;;;4932911;29;20126;-79
2021/12/06 09:09:10;;;;;;;53.55;20.70;;;3.60;99.90;;;;;;4928288;29;20111;-77
2021/12/06 09:11:38;;;;;;;53.63;21.75;;;3.10;99.90;;;;;;4942887;28;20051;-79
2021/12/06 09:14:05;;;;;;;48.78;20.63;;;3.00;99.90;;;;;;4926763;29;20140;-79
2021/12/06 09:16:30;;;;;;;50.05;21.55;;;4.20;99.90;;;;;;4911052;29;20051;-79
2021/12/06 09:18:58;;;;;;;54.92;21.75;;;3.20;99.90;;;;;;4910886;29;20079;-78
2021/12/06 09:21:24;;;;;;;56.30;22.92;;;3.20;99.90;;;;;;4933748;29;20054;-77
2021/12/06 09:23:52;;;;;;;47.35;22.00;;;3.20;99.90;;;;;;4926065;29;20043;-78
2021/12/06 09:26:18;;;;;;;50.88;21.15;;;3.20;99.90;;;;;;4910623;29;20378;-77
2021/12/06 09:28:44;;;;;;;52.10;21.10;;;3.20;99.90;;;;;;4893529;29;20043;-78
2021/12/06 09:31:10;;;;;;;53.10;21.77;;;3.20;99.90;;;;;;4926286;29;20060;-77
2021/12/06 09:33:37;;;;;;;55.97;22.33;;;3.20;99.90;;;;;;4925402;29;20058;-77
2021/12/06 09:36:05;;;;;;;51.35;20.55;;;3.30;99.90;;;;;;4909787;29;20063;-78
2021/12/06 09:38:37;;;;;;;49.13;20.55;;;3.30;99.90;;;;;;4926263;29;20047;-79
2021/12/06 09:41:08;;;;;;;46.08;19.85;;;3.40;99.90;;;;;;4941454;29;20058;-76
2021/12/06 09:43:38;;;;;;;49.53;20.02;;;4.40;99.90;;;;;;4926992;29;20058;-77
2021/12/06 09:46:05;;;;;;;50.67;20.95;;;3.80;99.90;;;;;;4926240;29;20521;-77
2021/12/06 09:48:31;;;;;;;50.72;21.08;;;3.30;99.90;;;;;;4932432;29;20504;-77
2021/12/06 09:51:08;;;;;;;50.95;20.75;;;3.30;99.90;;;;;;4893039;29;20479;-77
2021/12/06 09:53:36;;;;;;;49.42;21.10;;;3.30;99.90;;;;;;4927133;29;20047;-78
2021/12/06 09:56:06;;;;;;;49.42;20.92;;;3.40;99.90;;;;;;4926945;29;20419;-77
2021/12/06 09:58:33;;;;;;;44.80;19.58;;;3.40;99.90;;;;;;4887906;29;1146778;-77
2021/12/06 10:01:14;;;;;;;48.97;21.13;;;3.40;99.90;;;;;;4917224;29;20055;-77
2021/12/06 10:03:40;;;;;;;45.58;20.27;;;3.40;99.90;;;;;;4926635;29;20098;-77
2021/12/06 10:06:07;;;;;;;46.70;20.58;;;3.40;99.90;;;;;;4942639;28;20086;-78
2021/12/06 10:08:38;;;;;;;46.10;21.15;;;3.50;99.90;;;;;;4910741;29;20043;-77
2021/12/06 10:11:07;;;;;;;48.75;20.70;;;3.50;99.90;;;;;;4942709;28;20117;-77
2021/12/06 10:13:34;;;;;;;44.20;18.98;;;3.50;99.90;;;;;;4943690;28;20054;-76
2021/12/06 10:16:00;;;;;;;50.33;20.50;;;3.50;99.90;;;;;;4932599;29;20066;-77
2021/12/06 10:18:26;;;;;;;46.95;20.13;;;3.50;99.90;;;;;;4931846;29;20575;-77
2021/12/06 10:20:52;;;;;;;49.00;19.88;;;3.50;99.90;;;;;;4925687;29;20055;-77
2021/12/06 10:23:20;;;;;;;50.88;21.35;;;3.60;99.90;;;;;;4910298;29;20103;-76
2021/12/06 10:25:50;;;;;;;47.10;20.38;;;3.60;99.90;;;;;;4924303;29;20380;-79
2021/12/06 10:28:18;;;;;;;46.58;20.60;;;3.60;99.90;;;;;;4914991;29;20052;-77
2021/12/06 10:30:48;;;;;;;44.88;20.85;;;3.60;99.90;;;;;;4927060;29;20039;-77
2021/12/06 10:33:19;;;;;;;53.33;20.95;;;3.90;99.90;;;;;;4926922;29;20058;-78
2021/12/06 10:35:47;;;;;;;56.38;24.17;;;3.70;99.90;;;;;;4925950;29;20548;-78
2021/12/06 10:38:42;;;;;;;52.00;22.08;;;3.60;99.90;;;;;;4942704;28;20044;-77
2021/12/06 10:41:11;;;;;;;53.05;23.77;;;3.60;99.90;;;;;;4908195;29;20065;-77
2021/12/06 10:43:37;;;;;;;53.90;21.55;;;3.60;99.90;;;;;;4925964;29;20053;-77
2021/12/06 10:46:06;;;;;;;55.83;23.75;;;4.80;99.90;;;;;;4913196;29;20147;-77
2021/12/06 10:48:35;;;;;;;49.13;21.23;;;4.40;99.90;;;;;;4927122;29;20043;-77
2021/12/06 10:51:11;;;;;;;48.60;23.55;;;3.90;99.90;;;;;;4923700;29;20090;-77
2021/12/06 10:53:47;;;;;;;54.20;22.27;;;3.60;99.90;;;;;;4924873;29;20140;-77
2021/12/06 10:56:20;;;;;;;54.95;25.27;;;3.60;99.90;;;;;;4925141;29;20047;-77
2021/12/06 10:58:52;;;;;;;49.15;22.20;;;3.60;99.90;;;;;;4904082;29;20064;-80
2021/12/06 11:01:23;;;;;;;51.53;21.95;;;3.60;99.90;;;;;;4922896;29;20052;-79
2021/12/06 11:03:52;;;;;;;48.08;21.55;;;3.60;99.90;;;;;;4926572;29;20055;-81
2021/12/06 11:06:26;;;;;;;53.83;22.80;;;3.60;99.90;;;;;;4922887;29;20048;-79
2021/12/06 11:08:54;;;;;;;51.70;21.55;;;3.60;99.90;;;;;;4926719;29;20059;-80
2021/12/06 11:11:27;;;;;;;49.05;21.85;;;4.80;99.90;;;;;;4927245;29;20056;-80
2021/12/06 11:14:00;;;;;;;52.65;22.55;;;3.60;99.90;;;;;;4921771;29;20056;-80
2021/12/06 11:16:30;;;;;;;49.28;22.17;;;3.60;99.90;;;;;;4926811;29;20405;-80
2021/12/06 11:19:04;;;;;;;54.70;22.77;;;3.60;99.90;;;;;;4923386;29;20138;-81
2021/12/06 11:21:42;;;;;;;48.47;21.55;;;3.60;99.90;;;;;;4924140;29;20924;-79
2021/12/06 11:24:39;;;;;;;48.72;22.05;;;3.60;99.90;;;;;;4922633;29;20059;-81
2021/12/06 11:27:11;;;;;;;50.10;22.48;;;3.70;99.90;;;;;;4911924;29;20082;-81
2021/12/06 11:29:42;;;;;;;51.60;22.35;;;3.60;99.90;;;;;;4924124;29;20096;-79
2021/12/06 11:32:11;;;;;;;52.20;22.23;;;3.70;99.90;;;;;;4925295;29;20087;-80
2021/12/06 11:34:52;;;;;;;51.97;21.92;;;3.70;99.90;;;;;;4940531;29;20062;-81
2021/12/06 11:37:22;;;;;;;51.58;20.83;;;3.70;99.90;;;;;;4924243;29;20079;-81
2021/12/06 11:40:05;;;;;;;45.40;21.98;;;3.70;99.90;;;;;;4929280;29;20054;-85
2021/12/06 11:43:18;;;;;;;47.22;21.33;;;3.20;99.90;;;;;;4930216;29;20058;-87
2021/12/06 11:45:46;;;;;;;38.83;19.77;;;3.70;99.90;;;;;;4909076;29;20134;-86
2021/12/06 11:48:14;;;;;;;41.67;21.20;;;2.60;99.90;;;;;;4928481;29;20047;-82
2021/12/06 11:50:47;;;;;;;37.25;18.75;;;5.40;99.90;;;;;;4921470;29;20106;-81
2021/12/06 11:53:14;;;;;;;42.15;20.48;;;3.70;99.90;;;;;;4919158;29;20043;-81
2021/12/06 11:55:47;;;;;;;41.22;19.55;;;3.80;99.90;;;;;;4929614;29;20058;-86
2021/12/06 11:58:36;;;;;;;38.92;21.38;;;4.60;99.90;;;;;;4941164;29;20051;-85
2021/12/06 12:01:26;;;;;;;38.17;19.88;;;5.20;99.90;;;;;;4912796;29;20508;-81
2021/12/06 12:04:04;;;;;;;39.63;21.52;;;3.80;99.90;;;;;;4927626;29;20060;-83
2021/12/06 12:06:34;;;;;;;44.70;21.83;;;3.70;99.90;;;;;;4925173;29;20043;-82
2021/12/06 12:09:14;;;;;;;43.83;21.90;;;3.70;99.90;;;;;;4915047;29;20078;-82
2021/12/06 12:11:57;;;;;;;40.92;21.42;;;3.70;99.90;;;;;;4929611;29;20110;-82
2021/12/06 12:14:33;;;;;;;41.85;21.73;;;3.70;99.90;;;;;;4933159;29;20380;-82
2021/12/06 12:17:02;;;;;;;41.50;20.83;;;3.70;99.90;;;;;;4911520;29;20085;-82
2021/12/06 12:19:29;;;;;;;44.55;22.80;;;5.20;99.90;;;;;;4942946;29;20047;-82
2021/12/06 12:21:55;;;;;;;44.25;21.83;;;4.50;99.90;;;;;;4931944;29;20047;-83
2021/12/06 12:24:21;;;;;;;40.55;21.52;;;4.70;99.90;;;;;;4932599;29;20050;-81
2021/12/06 12:26:56;;;;;;;43.42;21.10;;;3.60;99.90;;;;;;4930134;29;20051;-81
2021/12/06 12:29:26;;;;;;;51.28;23.42;;;3.70;99.90;;;;;;4927502;29;20609;-82
2021/12/06 12:31:56;;;;;;;42.67;20.98;;;4.90;99.90;;;;;;4926072;29;20449;-82
2021/12/06 12:34:25;;;;;;;46.88;23.17;;;3.70;99.90;;;;;;4925595;29;20043;-82
2021/12/06 12:36:51;;;;;;;55.60;24.65;;;3.70;99.90;;;;;;4927281;29;20142;-81
2021/12/06 12:39:19;;;;;;;54.40;24.25;;;3.70;99.90;;;;;;4926776;29;20805;-81
2021/12/06 12:41:59;;;;;;;51.85;24.65;;;3.80;99.90;;;;;;4931932;29;20043;-82
2021/12/06 12:44:43;;;;;;;52.97;24.15;;;3.70;99.90;;;;;;4929657;29;20493;-82
2021/12/06 12:47:17;;;;;;;51.40;24.70;;;3.70;99.90;;;;;;4927620;29;20528;-82
2021/12/06 12:49:48;;;;;;;50.80;24.13;;;3.80;99.90;;;;;;4931925;29;20202;-81
2021/12/06 12:52:14;;;;;;;45.97;22.65;;;3.30;99.90;;;;;;4921635;29;20499;-81